createdAt,value
2017-09-29T00:01:43.359Z,14.67
2017-09-29T00:04:11.834Z,14.64
2017-09-29T00:06:40.281Z,14.63
2017-09-29T00:09:09.522Z,14.66
2017-09-29T00:11:37.974Z,14.65
2017-09-29T00:14:06.443Z,14.63
2017-09-29T00:16:35.656Z,14.65
2017-09-29T00:19:04.134Z,14.68
2017-09-29T00:21:32.586Z,14.70
2017-09-29T00:24:01.061Z,14.68
2017-09-29T00:26:29.544Z,14.68
2017-09-29T00:28:57.977Z,14.66
2017-09-29T00:31:26.450Z,14.66
2017-09-29T00:33:54.963Z,14.63
2017-09-29T00:36:23.437Z,14.60
2017-09-29T00:38:51.931Z,14.61
2017-09-29T00:41:20.498Z,14.62
2017-09-29T00:43:48.937Z,14.64
2017-09-29T00:46:18.286Z,14.62
2017-09-29T00:48:46.734Z,14.58
2017-09-29T00:51:15.971Z,14.59
2017-09-29T00:53:44.412Z,14.59
2017-09-29T00:56:13.751Z,14.58
2017-09-29T00:58:42.198Z,14.57
2017-09-29T01:01:14.702Z,14.53
2017-09-29T01:03:43.147Z,14.50
2017-09-29T01:06:12.382Z,14.54
2017-09-29T01:08:40.825Z,14.52
2017-09-29T01:11:10.042Z,14.51
2017-09-29T01:13:38.518Z,14.49
2017-09-29T01:16:07.720Z,14.49
2017-09-29T01:18:36.955Z,14.52
2017-09-29T01:21:05.421Z,14.53
2017-09-29T01:23:33.890Z,14.51
2017-09-29T01:26:02.333Z,14.47
2017-09-29T01:28:30.868Z,14.48
2017-09-29T01:30:59.309Z,14.46
2017-09-29T01:33:28.547Z,14.46
2017-09-29T01:35:57.043Z,14.44
2017-09-29T01:38:25.618Z,14.40
2017-09-29T01:40:54.064Z,14.39
2017-09-29T01:43:23.403Z,14.34
2017-09-29T01:45:51.881Z,14.35
2017-09-29T01:48:20.358Z,14.33
2017-09-29T01:50:48.796Z,14.31
2017-09-29T01:53:17.324Z,14.28
2017-09-29T01:55:45.784Z,14.28
2017-09-29T01:58:15.019Z,14.27
2017-09-29T02:00:43.498Z,14.22
2017-09-29T02:03:11.980Z,14.20
2017-09-29T02:05:40.449Z,14.17
2017-09-29T02:08:08.898Z,14.19
2017-09-29T02:10:38.246Z,14.17
2017-09-29T02:13:06.685Z,14.13
2017-09-29T02:15:36.009Z,14.10
2017-09-29T02:18:04.452Z,14.07
2017-09-29T02:20:32.987Z,14.05
2017-09-29T02:23:01.434Z,14.02
2017-09-29T02:25:30.667Z,14.01
2017-09-29T02:27:59.105Z,13.98
2017-09-29T02:30:28.338Z,13.97
2017-09-29T02:32:56.838Z,13.95
2017-09-29T02:35:25.421Z,13.95
2017-09-29T02:37:53.866Z,13.88
2017-09-29T02:40:23.078Z,13.84
2017-09-29T02:42:51.545Z,13.85
2017-09-29T02:45:20.748Z,13.82
2017-09-29T02:47:50.118Z,13.80
2017-09-29T02:50:18.567Z,13.76
2017-09-29T02:52:47.202Z,13.74
2017-09-29T02:55:16.410Z,13.79
2017-09-29T02:57:49.418Z,13.79
2017-09-29T03:00:18.965Z,13.78
2017-09-29T03:02:49.546Z,13.79
2017-09-29T03:05:23.622Z,13.77
2017-09-29T03:07:52.089Z,13.76
2017-09-29T03:10:20.537Z,13.74
2017-09-29T03:12:49.013Z,13.72
2017-09-29T03:15:17.517Z,13.70
2017-09-29T03:17:46.093Z,13.71
2017-09-29T03:20:14.553Z,13.72
2017-09-29T03:22:43.782Z,13.70
2017-09-29T03:25:12.254Z,13.66
2017-09-29T03:27:40.697Z,13.64
2017-09-29T03:30:09.922Z,13.63
2017-09-29T03:32:38.426Z,13.62
2017-09-29T03:35:06.894Z,13.57
2017-09-29T03:37:35.391Z,13.59
2017-09-29T03:40:03.858Z,13.64
2017-09-29T03:42:32.302Z,13.58
2017-09-29T03:45:00.837Z,13.58
2017-09-29T03:47:29.282Z,13.60
2017-09-29T03:49:59.434Z,13.61
2017-09-29T03:52:30.244Z,13.65
2017-09-29T03:55:00.657Z,13.57
2017-09-29T03:57:34.489Z,13.57
2017-09-29T04:00:02.953Z,13.54
2017-09-29T04:02:32.170Z,13.53
2017-09-29T04:05:00.776Z,13.53
2017-09-29T04:07:29.218Z,13.60
2017-09-29T04:09:58.426Z,13.64
2017-09-29T04:12:27.749Z,13.63
2017-09-29T04:14:56.243Z,13.61
2017-09-29T04:17:24.705Z,13.60
2017-09-29T04:19:53.149Z,13.60
2017-09-29T04:22:21.612Z,13.60
2017-09-29T04:24:50.054Z,13.59
2017-09-29T04:27:18.521Z,13.59
2017-09-29T04:29:46.960Z,13.61
2017-09-29T04:32:15.434Z,13.61
2017-09-29T04:34:43.882Z,13.61
2017-09-29T04:37:12.349Z,13.57
2017-09-29T04:39:40.793Z,13.49
2017-09-29T04:42:09.290Z,13.51
2017-09-29T04:44:38.938Z,13.53
2017-09-29T04:47:07.386Z,13.51
2017-09-29T04:49:36.622Z,13.43
2017-09-29T04:52:05.065Z,13.44
2017-09-29T04:54:34.300Z,13.38
2017-09-29T04:57:02.790Z,13.35
2017-09-29T04:59:31.490Z,13.36
2017-09-29T05:01:59.959Z,13.41
2017-09-29T05:04:28.436Z,13.47
2017-09-29T05:06:56.881Z,13.47
2017-09-29T05:09:26.123Z,13.45
2017-09-29T05:11:55.201Z,13.37
2017-09-29T05:14:23.671Z,13.33
2017-09-29T05:16:52.117Z,13.29
2017-09-29T05:19:20.582Z,13.29
2017-09-29T05:21:49.026Z,13.28
2017-09-29T05:24:17.526Z,13.27
2017-09-29T05:26:45.965Z,13.24
2017-09-29T05:29:15.313Z,13.25
2017-09-29T05:31:43.762Z,13.21
2017-09-29T05:34:12.210Z,13.22
2017-09-29T05:36:40.677Z,13.09
2017-09-29T05:39:09.117Z,13.08
2017-09-29T05:41:37.621Z,13.02
2017-09-29T05:44:06.058Z,13.03
2017-09-29T05:46:35.290Z,13.02
2017-09-29T05:49:03.752Z,12.97
2017-09-29T05:51:32.258Z,12.96
2017-09-29T05:54:00.713Z,12.98
2017-09-29T05:56:29.946Z,12.97
2017-09-29T05:58:58.420Z,12.95
2017-09-29T06:01:26.893Z,13.02
2017-09-29T06:03:55.386Z,13.05
2017-09-29T06:06:23.973Z,13.04
2017-09-29T06:08:53.173Z,13.09
2017-09-29T06:11:21.613Z,13.09
2017-09-29T06:13:50.850Z,13.09
2017-09-29T06:16:19.337Z,13.07
2017-09-29T06:18:47.812Z,13.06
2017-09-29T06:21:16.259Z,13.10
2017-09-29T06:23:45.598Z,13.09
2017-09-29T06:26:14.086Z,13.14
2017-09-29T06:28:42.554Z,13.15
2017-09-29T06:31:11.001Z,13.20
2017-09-29T06:33:40.325Z,13.28
2017-09-29T06:36:08.769Z,13.34
2017-09-29T06:38:37.317Z,13.40
2017-09-29T06:41:05.795Z,13.45
2017-09-29T06:43:34.277Z,13.43
2017-09-29T06:46:02.760Z,13.52
2017-09-29T06:48:31.245Z,13.54
2017-09-29T06:50:59.724Z,13.47
2017-09-29T06:53:28.207Z,13.45
2017-09-29T06:55:56.669Z,13.48
2017-09-29T06:58:25.113Z,13.50
2017-09-29T07:00:53.582Z,13.52
2017-09-29T07:03:22.854Z,13.43
2017-09-29T07:05:51.430Z,13.52
2017-09-29T07:08:19.873Z,13.46
2017-09-29T07:10:49.121Z,13.49
2017-09-29T07:13:17.566Z,13.53
2017-09-29T07:15:46.897Z,13.77
2017-09-29T07:18:15.345Z,13.83
2017-09-29T07:20:44.681Z,13.90
2017-09-29T07:23:13.130Z,13.98
2017-09-29T07:25:44.070Z,14.00
2017-09-29T07:28:17.645Z,14.01
2017-09-29T07:30:48.582Z,13.98
2017-09-29T07:33:17.024Z,13.97
2017-09-29T07:35:45.610Z,13.95
2017-09-29T07:38:14.049Z,14.00
2017-09-29T07:40:43.286Z,13.98
2017-09-29T07:43:11.734Z,13.98
2017-09-29T07:45:40.994Z,14.13
2017-09-29T07:48:09.554Z,14.07
2017-09-29T07:50:38.002Z,14.17
2017-09-29T07:53:07.329Z,14.16
2017-09-29T07:55:35.769Z,14.21
2017-09-29T07:58:05.115Z,14.27
2017-09-29T08:00:33.553Z,14.37
2017-09-29T08:03:02.790Z,14.48
2017-09-29T08:05:31.237Z,14.35
2017-09-29T08:08:00.581Z,14.50
2017-09-29T08:10:29.171Z,14.60
2017-09-29T08:12:57.652Z,14.68
2017-09-29T08:15:26.133Z,14.71
2017-09-29T08:17:54.598Z,14.86
2017-09-29T08:20:23.049Z,14.98
2017-09-29T08:22:52.287Z,15.13
2017-09-29T08:25:20.740Z,15.07
2017-09-29T08:27:49.982Z,15.15
2017-09-29T08:30:18.421Z,15.23
2017-09-29T08:32:47.658Z,15.32
2017-09-29T08:35:16.097Z,15.38
2017-09-29T08:37:45.338Z,15.56
2017-09-29T08:40:13.922Z,15.59
2017-09-29T08:42:42.369Z,15.74
2017-09-29T08:45:11.698Z,15.80
2017-09-29T08:47:40.137Z,15.82
2017-09-29T08:50:09.372Z,15.91
2017-09-29T08:52:37.814Z,15.88
2017-09-29T08:55:06.282Z,15.83
2017-09-29T08:57:34.853Z,16.00
2017-09-29T09:00:03.417Z,16.11
2017-09-29T09:02:31.902Z,16.04
2017-09-29T09:05:00.483Z,16.20
2017-09-29T09:07:28.930Z,16.22
2017-09-29T09:09:58.268Z,16.43
2017-09-29T09:12:26.713Z,16.59
2017-09-29T09:14:55.929Z,16.71
2017-09-29T09:17:24.431Z,16.70
2017-09-29T09:19:52.874Z,16.71
2017-09-29T09:22:22.114Z,16.62
2017-09-29T09:24:50.592Z,16.73
2017-09-29T09:27:19.071Z,16.61
2017-09-29T09:29:47.513Z,16.66
2017-09-29T09:32:16.742Z,16.83
2017-09-29T09:34:45.185Z,16.84
2017-09-29T09:37:14.539Z,16.97
2017-09-29T09:39:43.016Z,16.97
2017-09-29T09:42:11.490Z,17.04
2017-09-29T09:44:39.938Z,16.98
2017-09-29T09:47:09.169Z,17.31
2017-09-29T09:49:37.614Z,17.14
2017-09-29T09:52:06.850Z,16.83
2017-09-29T09:54:35.662Z,16.92
2017-09-29T09:57:04.238Z,16.98
2017-09-29T09:59:32.690Z,16.88
2017-09-29T10:02:01.918Z,17.11
2017-09-29T10:04:30.399Z,17.11
2017-09-29T10:06:58.846Z,17.23
2017-09-29T10:09:28.078Z,17.39
2017-09-29T10:11:56.526Z,17.54
2017-09-29T10:14:25.763Z,17.75
2017-09-29T10:16:54.237Z,17.57
2017-09-29T10:19:22.727Z,17.92
2017-09-29T10:21:51.174Z,17.85
2017-09-29T10:24:20.511Z,17.89
2017-09-29T10:26:48.974Z,17.91
2017-09-29T10:29:17.477Z,17.97
2017-09-29T10:31:45.958Z,18.05
2017-09-29T10:34:14.426Z,18.16
2017-09-29T10:36:42.869Z,18.38
2017-09-29T10:39:12.126Z,18.29
2017-09-29T10:41:40.569Z,18.33
2017-09-29T10:44:09.777Z,18.50
2017-09-29T10:46:38.245Z,18.52
2017-09-29T10:49:07.479Z,18.58
2017-09-29T10:51:35.951Z,18.45
2017-09-29T10:54:04.445Z,18.52
2017-09-29T10:56:32.949Z,18.60
2017-09-29T10:59:01.394Z,18.78
2017-09-29T11:01:29.861Z,18.82
2017-09-29T11:03:58.385Z,18.70
2017-09-29T11:06:26.957Z,18.77
2017-09-29T11:08:55.401Z,18.62
2017-09-29T11:11:24.628Z,18.83
2017-09-29T11:13:53.074Z,18.85
2017-09-29T11:16:22.308Z,18.99
2017-09-29T11:18:50.758Z,18.86
2017-09-29T11:21:20.011Z,18.94
2017-09-29T11:23:48.456Z,18.83
2017-09-29T11:26:17.169Z,19.01
2017-09-29T11:28:45.623Z,19.00
2017-09-29T11:31:14.077Z,19.03
2017-09-29T11:33:43.322Z,19.13
2017-09-29T11:36:11.777Z,19.17
2017-09-29T11:38:41.014Z,19.03
2017-09-29T11:41:09.462Z,19.09
2017-09-29T11:43:37.926Z,19.16
2017-09-29T11:46:07.176Z,19.29
2017-09-29T11:48:35.701Z,19.41
2017-09-29T11:51:04.238Z,19.46
2017-09-29T11:53:32.827Z,19.44
2017-09-29T11:56:01.281Z,19.47
2017-09-29T11:58:29.895Z,19.34
2017-09-29T12:00:58.337Z,19.39
2017-09-29T12:03:27.569Z,19.34
2017-09-29T12:05:56.026Z,19.48
2017-09-29T12:08:24.538Z,19.49
2017-09-29T12:10:52.982Z,19.41
2017-09-29T12:13:22.222Z,19.51
2017-09-29T12:15:50.701Z,19.62
2017-09-29T12:18:19.174Z,19.57
2017-09-29T12:20:47.661Z,19.45
2017-09-29T12:23:16.146Z,19.33
2017-09-29T12:25:44.618Z,19.42
2017-09-29T12:28:13.073Z,19.58
2017-09-29T12:30:42.309Z,19.55
2017-09-29T12:33:10.752Z,19.54
2017-09-29T12:35:39.981Z,19.71
2017-09-29T12:38:08.420Z,19.56
2017-09-29T12:40:37.765Z,19.62
2017-09-29T12:43:06.210Z,19.62
2017-09-29T12:45:35.446Z,19.65
2017-09-29T12:48:03.936Z,19.65
2017-09-29T12:50:32.409Z,19.53
2017-09-29T12:53:00.853Z,19.59
2017-09-29T12:55:30.101Z,19.70
2017-09-29T12:57:58.544Z,19.74
2017-09-29T13:00:27.779Z,19.71
2017-09-29T13:02:56.366Z,19.84
2017-09-29T13:05:24.847Z,19.81
2017-09-29T13:07:53.426Z,19.85
2017-09-29T13:10:21.913Z,19.99
2017-09-29T13:12:50.382Z,20.08
2017-09-29T13:15:18.829Z,20.03
2017-09-29T13:17:48.062Z,19.95
2017-09-29T13:20:16.510Z,20.06
2017-09-29T13:22:45.740Z,20.10
2017-09-29T13:25:14.240Z,20.00
2017-09-29T13:27:42.696Z,19.93
2017-09-29T13:30:11.306Z,19.94
2017-09-29T13:32:39.885Z,19.95
2017-09-29T13:35:08.335Z,19.98
2017-09-29T13:37:37.569Z,20.02
2017-09-29T13:40:06.155Z,19.89
2017-09-29T13:42:34.606Z,19.83
2017-09-29T13:45:03.073Z,19.93
2017-09-29T13:47:32.286Z,20.00
2017-09-29T13:50:01.520Z,19.92
2017-09-29T13:52:29.965Z,19.79
2017-09-29T13:54:59.306Z,19.63
2017-09-29T13:57:27.748Z,19.65
2017-09-29T13:59:57.078Z,19.61
2017-09-29T14:02:25.526Z,19.75
2017-09-29T14:04:54.763Z,19.70
2017-09-29T14:07:23.214Z,19.70
2017-09-29T14:09:51.731Z,19.82
2017-09-29T14:12:20.185Z,19.70
2017-09-29T14:14:48.692Z,19.59
2017-09-29T14:17:17.138Z,19.56
2017-09-29T14:19:46.354Z,19.59
2017-09-29T14:22:14.825Z,19.49
2017-09-29T14:24:43.336Z,19.50
2017-09-29T14:27:11.801Z,19.56
2017-09-29T14:29:40.252Z,19.44
2017-09-29T14:32:09.604Z,19.45
2017-09-29T14:34:38.078Z,19.39
2017-09-29T14:37:06.586Z,19.45
2017-09-29T14:39:35.042Z,19.46
2017-09-29T14:42:03.513Z,19.41
2017-09-29T14:44:32.005Z,19.43
2017-09-29T14:47:00.473Z,19.38
2017-09-29T14:49:28.977Z,19.31
2017-09-29T14:51:57.440Z,19.35
2017-09-29T14:54:25.876Z,19.33
2017-09-29T14:56:54.419Z,19.23
2017-09-29T14:59:22.885Z,19.17
2017-09-29T15:01:51.329Z,19.19
2017-09-29T15:04:20.561Z,19.19
2017-09-29T15:06:49.005Z,19.13
2017-09-29T15:09:17.469Z,19.00
2017-09-29T15:11:46.031Z,18.95
2017-09-29T15:14:14.513Z,18.94
2017-09-29T15:16:42.998Z,18.83
2017-09-29T15:19:11.464Z,18.79
2017-09-29T15:21:39.910Z,18.78
2017-09-29T15:24:09.150Z,18.71
2017-09-29T15:26:37.593Z,18.65
2017-09-29T15:29:06.940Z,18.66
2017-09-29T15:31:36.349Z,18.65
2017-09-29T15:34:04.815Z,18.62
2017-09-29T15:36:33.256Z,18.60
2017-09-29T15:39:02.601Z,18.54
2017-09-29T15:41:31.093Z,18.50
2017-09-29T15:43:59.561Z,18.44
2017-09-29T15:46:28.067Z,18.27
2017-09-29T15:48:56.512Z,18.18
2017-09-29T15:51:25.029Z,18.13
2017-09-29T15:53:53.477Z,18.02
2017-09-29T15:56:21.983Z,17.98
2017-09-29T15:58:50.462Z,17.93
2017-09-29T16:01:18.942Z,17.81
2017-09-29T16:03:47.381Z,17.82
2017-09-29T16:06:16.608Z,17.73
2017-09-29T16:08:45.109Z,17.69
2017-09-29T16:11:13.577Z,17.56
2017-09-29T16:13:42.074Z,17.56
2017-09-29T16:16:10.536Z,17.54
2017-09-29T16:18:38.982Z,17.47
2017-09-29T16:21:07.445Z,17.41
2017-09-29T16:23:35.889Z,17.36
2017-09-29T16:26:04.380Z,17.28
2017-09-29T16:28:32.858Z,17.23
2017-09-29T16:31:01.305Z,17.14
2017-09-29T16:33:30.539Z,17.03
2017-09-29T16:35:59.022Z,16.99
2017-09-29T16:38:27.509Z,16.90
2017-09-29T16:40:55.957Z,16.81
2017-09-29T16:43:25.285Z,16.77
2017-09-29T16:45:53.725Z,16.70
2017-09-29T16:48:23.062Z,16.56
2017-09-29T16:50:51.505Z,16.49
2017-09-29T16:53:20.741Z,16.44
2017-09-29T16:55:49.194Z,16.33
2017-09-29T16:58:18.533Z,16.28
2017-09-29T17:00:46.982Z,16.20
2017-09-29T17:03:16.426Z,16.15
2017-09-29T17:05:44.868Z,16.10
2017-09-29T17:08:14.156Z,16.13
2017-09-29T17:10:43.389Z,16.11
2017-09-29T17:13:11.833Z,15.93
2017-09-29T17:15:40.302Z,15.81
2017-09-29T17:18:08.852Z,15.76
2017-09-29T17:20:37.437Z,15.78
2017-09-29T17:23:05.923Z,15.73
2017-09-29T17:25:34.386Z,15.73
2017-09-29T17:28:02.877Z,15.74
2017-09-29T17:30:31.353Z,15.66
2017-09-29T17:32:59.801Z,15.64
2017-09-29T17:35:29.029Z,15.56
2017-09-29T17:37:57.479Z,15.42
2017-09-29T17:40:26.705Z,15.34
2017-09-29T17:42:55.208Z,15.29
2017-09-29T17:45:23.697Z,15.16
2017-09-29T17:47:52.172Z,15.05
2017-09-29T17:50:20.621Z,15.03
2017-09-29T17:52:49.852Z,14.96
2017-09-29T17:55:18.337Z,14.95
2017-09-29T17:57:47.023Z,14.98
2017-09-29T18:00:15.504Z,14.98
2017-09-29T18:02:43.970Z,14.98
2017-09-29T18:05:12.479Z,14.98
2017-09-29T18:07:41.047Z,14.97
2017-09-29T18:10:09.534Z,14.97
2017-09-29T18:12:38.017Z,14.96
2017-09-29T18:15:07.216Z,14.92
2017-09-29T18:17:35.686Z,14.88
2017-09-29T18:20:04.129Z,14.86
2017-09-29T18:22:33.362Z,14.85
2017-09-29T18:25:01.801Z,14.82
2017-09-29T18:27:30.270Z,14.78
2017-09-29T18:29:58.713Z,14.78
2017-09-29T18:32:27.153Z,14.76
2017-09-29T18:34:56.390Z,14.73
2017-09-29T18:37:24.885Z,14.69
2017-09-29T18:39:53.354Z,14.63
2017-09-29T18:42:21.852Z,14.57
2017-09-29T18:47:56.080Z,14.47
2017-09-29T18:50:24.558Z,14.42
2017-09-29T18:52:53.002Z,14.36
2017-09-29T18:55:22.229Z,14.35
2017-09-29T18:57:50.677Z,14.32
2017-09-29T19:00:20.027Z,14.25
2017-09-29T19:02:48.509Z,14.23
2017-09-29T19:05:17.104Z,14.18
2017-09-29T19:07:45.550Z,14.18
2017-09-29T19:10:14.789Z,14.15
2017-09-29T19:12:43.238Z,14.12
2017-09-29T19:15:11.730Z,14.06
2017-09-29T19:17:40.198Z,13.98
2017-09-29T19:20:08.642Z,13.95
2017-09-29T19:22:37.109Z,13.96
2017-09-29T19:25:05.549Z,13.90
2017-09-29T19:27:34.054Z,13.86
2017-09-29T19:30:02.535Z,13.87
2017-09-29T19:32:31.034Z,13.86
2017-09-29T19:34:59.499Z,13.85
2017-09-29T19:37:28.081Z,13.84
2017-09-29T19:39:56.564Z,13.78
2017-09-29T19:42:25.153Z,13.76
2017-09-29T19:44:53.599Z,13.71
2017-09-29T19:47:22.833Z,13.67
2017-09-29T19:49:51.273Z,13.64
2017-09-29T19:52:20.511Z,13.62
2017-09-29T19:54:48.994Z,13.58
2017-09-29T19:57:17.481Z,13.55
2017-09-29T19:59:45.925Z,13.51
2017-09-29T20:02:15.137Z,13.50
2017-09-29T20:04:45.178Z,13.48
2017-09-29T20:07:13.618Z,13.50
2017-09-29T20:09:42.849Z,13.47
2017-09-29T20:12:11.338Z,13.43
2017-09-29T20:14:39.911Z,13.43
2017-09-29T20:17:08.357Z,13.38
2017-09-29T20:19:37.685Z,13.37
2017-09-29T20:22:06.186Z,13.35
2017-09-29T20:24:34.649Z,13.30
2017-09-29T20:27:03.085Z,13.27
2017-09-29T20:29:31.626Z,13.26
2017-09-29T20:32:00.113Z,13.22
2017-09-29T20:34:28.581Z,13.22
2017-09-29T20:36:57.021Z,13.18
2017-09-29T20:39:25.477Z,13.19
2017-09-29T20:41:53.950Z,13.16
2017-09-29T20:44:22.396Z,13.16
2017-09-29T20:46:50.870Z,13.07
2017-09-29T20:49:20.077Z,13.08
2017-09-29T20:51:48.550Z,13.03
2017-09-29T20:54:17.762Z,13.01
2017-09-29T20:56:46.259Z,12.97
2017-09-29T20:59:14.709Z,12.93
2017-09-29T21:01:43.945Z,12.90
2017-09-29T21:04:12.393Z,12.87
2017-09-29T21:06:41.723Z,12.84
2017-09-29T21:09:10.205Z,12.81
2017-09-29T21:11:38.669Z,12.76
2017-09-29T21:14:07.124Z,12.73
2017-09-29T21:16:36.357Z,12.68
2017-09-29T21:19:04.797Z,12.69
2017-09-29T21:21:33.333Z,12.66
2017-09-29T21:24:01.805Z,12.67
2017-09-29T21:26:30.261Z,12.62
2017-09-29T21:28:59.488Z,12.60
2017-09-29T21:31:27.934Z,12.59
2017-09-29T21:33:57.169Z,12.53
2017-09-29T21:36:25.612Z,12.51
2017-09-29T21:38:54.844Z,12.48
2017-09-29T21:41:23.289Z,12.45
2017-09-29T21:43:51.762Z,12.45
2017-09-29T21:46:20.964Z,12.41
2017-09-29T21:48:49.437Z,12.39
2017-09-29T21:51:17.888Z,12.37
2017-09-29T21:53:46.474Z,12.36
2017-09-29T21:56:14.955Z,12.31
2017-09-29T21:58:43.421Z,12.29
2017-09-29T22:01:11.919Z,12.26
2017-09-29T22:03:40.506Z,12.26
2017-09-29T22:06:08.945Z,12.24
2017-09-29T22:08:38.157Z,12.23
2017-09-29T22:11:06.626Z,12.18
2017-09-29T22:13:35.841Z,12.16
2017-09-29T22:16:04.309Z,12.16
2017-09-29T22:18:33.545Z,12.13
2017-09-29T22:21:02.126Z,12.11
2017-09-29T22:23:30.569Z,12.05
2017-09-29T22:25:59.913Z,12.05
2017-09-29T22:28:28.888Z,11.99
2017-09-29T22:30:57.388Z,11.98
2017-09-29T22:33:25.866Z,11.98
2017-09-29T22:35:54.353Z,11.89
2017-09-29T22:38:22.830Z,11.90
2017-09-29T22:40:51.317Z,11.86
2017-09-29T22:43:19.794Z,11.83
2017-09-29T22:45:48.241Z,11.79
2017-09-29T22:48:17.479Z,11.76
2017-09-29T22:50:45.930Z,11.73
2017-09-29T22:53:15.257Z,11.73
2017-09-29T22:55:43.746Z,11.69
2017-09-29T22:58:12.218Z,11.66
2017-09-29T23:00:40.678Z,11.60
2017-09-29T23:03:09.907Z,11.59
2017-09-29T23:05:38.353Z,11.54
2017-09-29T23:08:07.674Z,11.53
2017-09-29T23:10:36.172Z,11.50
2017-09-29T23:13:04.646Z,11.50
2017-09-29T23:15:33.140Z,11.44
2017-09-29T23:18:01.601Z,11.40
2017-09-29T23:20:30.045Z,11.37
2017-09-29T23:22:58.584Z,11.30
2017-09-29T23:25:27.029Z,11.29
2017-09-29T23:27:56.242Z,11.27
2017-09-29T23:30:24.705Z,11.28
2017-09-29T23:32:53.913Z,11.23
2017-09-29T23:35:23.246Z,11.22
2017-09-29T23:37:51.724Z,11.20
2017-09-29T23:40:20.198Z,11.20
2017-09-29T23:42:48.693Z,11.17
2017-09-29T23:45:17.278Z,11.17
2017-09-29T23:47:45.725Z,11.12
2017-09-29T23:50:14.962Z,11.09
2017-09-29T23:52:43.434Z,11.07
2017-09-29T23:55:11.911Z,11.03
2017-09-29T23:57:40.404Z,11.04
